Augusta, Ohio
Current Conditions -  °F | °C
As of 7:06 AM on Thursday 23 Oct 2014 (Local Time) from KPHD Reporting Station
Scattered Clouds Scattered Clouds  
Wind Chill:   Ceiling: Unl
Heat Index:   Visibility: 9mi
Dew Point:   Wind: 5mph
Humidity: 93%   Direction: 310°NW
Pressure: 30.2"   Gusts: NA
Location:  40.69°N, 81.02°W
Report Text: KPHD 231106Z AUTO 31004KT 9SM SCT022 07/06 A3020 RMK AO2 T00670056
Loading
Personal Weather Stations






























Interactive Weather Map
Tropical Storm Tracking
New forecast layout! Learn more

10-Day Weather Forecast

Advertisements
Track Severe Weather on mobile